createdAt,value
2018-04-28T00:02:06.394Z,99453.22
2018-04-28T00:04:33.234Z,99449.94
2018-04-28T00:07:00.085Z,99451.05
2018-04-28T00:09:26.934Z,99447.83
2018-04-28T00:11:53.680Z,99449.76
2018-04-28T00:14:20.528Z,99444.55
2018-04-28T00:16:54.329Z,99443.05
2018-04-28T00:19:22.821Z,99439.34
2018-04-28T00:21:51.611Z,99436.91
2018-04-28T00:24:18.351Z,99435.23
2018-04-28T00:26:49.093Z,99436.09
2018-04-28T00:29:17.681Z,99431.70
2018-04-28T00:31:53.736Z,99434.84
2018-04-28T00:34:20.493Z,99435.38
2018-04-28T00:39:57.776Z,99433.20
2018-04-28T00:42:32.706Z,99436.47
2018-04-28T00:44:59.388Z,99431.83
2018-04-28T00:47:26.085Z,99433.78
2018-04-28T00:49:57.899Z,99433.09
2018-04-28T00:52:27.472Z,99437.65
2018-04-28T00:55:01.270Z,99430.20
2018-04-28T00:57:34.775Z,99428.42
2018-04-28T01:00:02.437Z,99438.61
2018-04-28T01:02:29.101Z,99434.19
2018-04-28T01:04:55.824Z,99427.20
2018-04-28T01:07:24.629Z,99423.28
2018-04-28T01:09:53.305Z,99423.22
2018-04-28T01:12:20.057Z,99424.04
2018-04-28T01:14:46.898Z,99422.30
2018-04-28T01:17:13.648Z,99420.02
2018-04-28T01:19:41.308Z,99421.69
2018-04-28T01:22:08.064Z,99414.56
2018-04-28T01:24:39.407Z,99409.72
2018-04-28T01:27:25.701Z,99409.39
2018-04-28T01:33:09.642Z,99409.28
2018-04-28T01:38:31.884Z,99406.98
2018-04-28T01:44:00.790Z,99401.20
2018-04-28T01:46:41.247Z,99403.61
2018-04-28T01:49:08.708Z,99407.30
2018-04-28T01:51:37.500Z,99405.69
2018-04-28T01:57:18.368Z,99407.14
2018-04-28T01:59:59.346Z,99407.88
2018-04-28T02:02:45.685Z,99409.16
2018-04-28T02:05:16.475Z,99417.95
2018-04-28T02:07:46.181Z,99415.41
2018-04-28T02:10:13.747Z,99411.56
2018-04-28T02:12:49.496Z,99404.45
2018-04-28T02:18:30.271Z,99407.43
2018-04-28T02:21:06.120Z,99393.66
2018-04-28T02:23:35.936Z,99393.98
2018-04-28T02:26:06.569Z,99396.91
2018-04-28T02:31:31.511Z,99397.89
2018-04-28T02:37:17.465Z,99405.64
2018-04-28T02:39:46.873Z,99402.22
2018-04-28T02:42:14.633Z,99402.89
2018-04-28T02:44:42.207Z,99401.57
2018-04-28T02:47:09.977Z,99407.54
2018-04-28T02:53:02.100Z,99412.34
2018-04-28T02:55:36.728Z,99411.09
2018-04-28T02:58:05.421Z,99410.89
2018-04-28T03:00:36.889Z,99402.09
2018-04-28T03:03:04.533Z,99395.14
2018-04-28T03:05:33.224Z,99395.66
2018-04-28T03:08:08.972Z,99392.30
2018-04-28T03:13:38.992Z,99386.77
2018-04-28T03:16:10.486Z,99392.85
2018-04-28T03:18:37.407Z,99394.47
2018-04-28T03:21:04.148Z,99390.74
2018-04-28T03:23:33.756Z,99398.77
2018-04-28T03:26:04.194Z,99394.26
2018-04-28T03:28:31.848Z,99395.66
2018-04-28T03:31:03.721Z,99396.63
2018-04-28T03:33:33.334Z,99392.33
2018-04-28T03:39:01.041Z,99394.16
2018-04-28T03:41:27.846Z,99388.58
2018-04-28T03:43:58.475Z,99387.85
2018-04-28T03:46:42.224Z,99391.54
2018-04-28T03:49:17.853Z,99378.89
2018-04-28T03:54:40.205Z,99384.55
2018-04-28T04:00:18.419Z,99392.45
2018-04-28T04:02:57.340Z,99393.92
2018-04-28T04:05:30.130Z,99394.14
2018-04-28T04:08:15.698Z,99387.97
2018-04-28T04:11:08.130Z,99387.23
2018-04-28T04:13:41.942Z,99396.11
2018-04-28T04:19:10.931Z,99398.55
2018-04-28T04:22:00.404Z,99400.47
2018-04-28T04:24:40.037Z,99398.41
2018-04-28T04:27:13.646Z,99400.77
2018-04-28T04:29:52.257Z,99400.48
2018-04-28T04:32:19.827Z,99398.55
2018-04-28T04:37:48.128Z,99402.04
2018-04-28T04:43:35.930Z,99401.39
2018-04-28T04:46:14.866Z,99401.95
2018-04-28T04:52:12.736Z,99415.03
2018-04-28T05:01:06.387Z,99415.66
2018-04-28T05:06:45.716Z,99414.13
2018-04-28T05:12:32.419Z,99420.86
2018-04-28T05:15:11.351Z,99432.17
2018-04-28T05:17:43.977Z,99425.40
2018-04-28T05:23:25.101Z,99428.13
2018-04-28T05:26:02.696Z,99434.83
2018-04-28T05:28:45.097Z,99431.88
2018-04-28T05:34:22.907Z,99431.55
2018-04-28T05:37:01.618Z,99429.09
2018-04-28T05:39:40.539Z,99436.32
2018-04-28T05:42:16.610Z,99446.11
2018-04-28T05:44:54.502Z,99435.92
2018-04-28T05:50:34.451Z,99436.94
2018-04-28T05:53:15.014Z,99439.66
2018-04-28T05:55:53.839Z,99436.98
2018-04-28T05:58:32.657Z,99439.58
2018-04-28T06:04:20.079Z,99434.91
2018-04-28T06:06:47.539Z,99440.66
2018-04-28T06:12:20.828Z,99431.38
2018-04-28T06:14:59.661Z,99431.33
2018-04-28T06:20:46.665Z,99423.02
2018-04-28T06:23:13.312Z,99431.37
2018-04-28T06:25:40.054Z,99424.28
2018-04-28T06:28:06.904Z,99428.36
2018-04-28T06:30:34.505Z,99426.96
2018-04-28T06:33:01.216Z,99420.92
2018-04-28T06:35:27.981Z,99421.92
2018-04-28T06:37:54.713Z,99415.27
2018-04-28T06:40:22.577Z,99412.94
2018-04-28T06:42:49.317Z,99421.77
2018-04-28T06:45:15.962Z,99419.29
2018-04-28T06:47:42.711Z,99418.47
2018-04-28T06:50:09.479Z,99420.84
2018-04-28T06:52:36.204Z,99422.95
2018-04-28T06:55:02.847Z,99417.09
2018-04-28T06:57:29.623Z,99414.81
2018-04-28T06:59:56.335Z,99423.70
2018-04-28T07:02:23.078Z,99416.19
2018-04-28T07:04:51.471Z,99418.45
2018-04-28T07:07:19.226Z,99418.98
2018-04-28T07:09:45.877Z,99424.84
2018-04-28T07:12:12.739Z,99424.80
2018-04-28T07:14:39.469Z,99431.50
2018-04-28T07:17:06.215Z,99432.61
2018-04-28T07:19:33.058Z,99431.75
2018-04-28T07:21:59.912Z,99438.75
2018-04-28T07:24:26.654Z,99436.12
2018-04-28T07:26:53.505Z,99438.77
2018-04-28T07:29:20.401Z,99444.73
2018-04-28T07:31:47.123Z,99442.73
2018-04-28T07:34:13.944Z,99436.81
2018-04-28T07:36:40.686Z,99439.36
2018-04-28T07:39:07.436Z,99433.94
2018-04-28T07:41:35.528Z,99430.48
2018-04-28T07:44:02.359Z,99431.84
2018-04-28T07:46:29.113Z,99434.62
2018-04-28T07:48:56.062Z,99437.44
2018-04-28T07:51:22.902Z,99430.14
2018-04-28T07:53:50.670Z,99438.73
2018-04-28T07:56:17.622Z,99438.75
2018-04-28T07:58:44.364Z,99428.64
2018-04-28T08:01:12.234Z,99439.41
2018-04-28T08:03:38.987Z,99437.87
2018-04-28T08:06:05.728Z,99443.47
2018-04-28T08:08:32.580Z,99435.92
2018-04-28T08:10:59.527Z,99437.87
2018-04-28T08:13:26.383Z,99441.49
2018-04-28T08:15:53.220Z,99443.70
2018-04-28T08:18:20.070Z,99441.86
2018-04-28T08:20:46.861Z,99447.91
2018-04-28T08:23:13.660Z,99453.42
2018-04-28T08:25:40.522Z,99454.05
2018-04-28T08:28:07.362Z,99445.91
2018-04-28T08:30:34.206Z,99453.98
2018-04-28T08:33:01.366Z,99456.41
2018-04-28T08:35:28.220Z,99451.95
2018-04-28T08:37:54.955Z,99453.45
2018-04-28T08:40:23.850Z,99455.53
2018-04-28T08:42:50.600Z,99452.33
2018-04-28T08:45:17.342Z,99450.36
2018-04-28T08:47:44.189Z,99458.69
2018-04-28T08:50:10.934Z,99452.52
2018-04-28T08:52:37.785Z,99450.95
2018-04-28T08:55:04.633Z,99455.70
2018-04-28T08:57:31.371Z,99457.22
2018-04-28T09:00:10.405Z,99457.96
2018-04-28T09:02:37.144Z,99460.59
2018-04-28T09:05:03.887Z,99454.62
2018-04-28T09:07:38.526Z,99451.41
2018-04-28T09:10:05.258Z,99449.31
2018-04-28T09:12:31.910Z,99452.69
2018-04-28T09:14:58.752Z,99455.34
2018-04-28T09:17:25.498Z,99467.26
2018-04-28T09:19:52.238Z,99455.71
2018-04-28T09:22:19.096Z,99455.45
2018-04-28T09:24:45.852Z,99466.42
2018-04-28T09:27:12.544Z,99462.02
2018-04-28T09:29:39.634Z,99459.06
2018-04-28T09:32:07.312Z,99468.05
2018-04-28T09:34:34.048Z,99458.13
2018-04-28T09:37:00.838Z,99460.95
2018-04-28T09:39:27.540Z,99466.76
2018-04-28T09:41:54.280Z,99463.30
2018-04-28T09:44:21.033Z,99445.03
2018-04-28T09:46:47.667Z,99456.07
2018-04-28T09:49:14.419Z,99455.73
2018-04-28T09:51:41.173Z,99459.13
2018-04-28T09:54:08.224Z,99458.97
2018-04-28T09:56:36.095Z,99455.81
2018-04-28T09:59:02.939Z,99459.19
2018-04-28T10:01:35.576Z,99462.58
2018-04-28T10:04:02.473Z,99457.14
2018-04-28T10:06:29.208Z,99459.28
2018-04-28T10:08:55.958Z,99457.13
2018-04-28T10:11:22.699Z,99458.70
2018-04-28T10:13:49.549Z,99465.35
2018-04-28T10:16:16.289Z,99467.03
2018-04-28T10:18:43.040Z,99466.03
2018-04-28T10:21:09.894Z,99450.90
2018-04-28T10:23:36.633Z,99452.16
2018-04-28T10:26:03.273Z,99454.71
2018-04-28T10:28:30.123Z,99454.70
2018-04-28T10:30:56.872Z,99459.70
2018-04-28T10:33:23.618Z,99449.53
2018-04-28T10:35:50.467Z,99466.97
2018-04-28T10:38:17.209Z,99459.97
2018-04-28T10:40:43.956Z,99459.75
2018-04-28T10:43:10.907Z,99448.11
2018-04-28T10:45:37.751Z,99461.17
2018-04-28T10:48:04.502Z,99448.55
2018-04-28T10:50:31.959Z,99449.66
2018-04-28T10:52:58.708Z,99459.73
2018-04-28T10:55:25.450Z,99464.61
2018-04-28T10:57:52.376Z,99453.80
2018-04-28T11:00:19.045Z,99458.95
2018-04-28T11:02:45.693Z,99460.48
2018-04-28T11:05:12.454Z,99451.75
2018-04-28T11:07:39.178Z,99447.79
2018-04-28T11:10:05.927Z,99446.52
2018-04-28T11:12:32.709Z,99465.98
2018-04-28T11:14:59.412Z,99456.19
2018-04-28T11:17:26.158Z,99460.87
2018-04-28T11:19:52.968Z,99458.78
2018-04-28T11:22:19.651Z,99449.32
2018-04-28T11:24:46.391Z,99455.09
2018-04-28T11:27:13.244Z,99442.58
2018-04-28T11:29:39.932Z,99438.56
2018-04-28T11:32:06.738Z,99441.30
2018-04-28T11:34:33.588Z,99441.11
2018-04-28T11:37:00.237Z,99442.66
2018-04-28T11:39:26.970Z,99449.84
2018-04-28T11:41:54.849Z,99452.02
2018-04-28T11:44:21.590Z,99457.19
2018-04-28T11:46:48.230Z,99443.72
2018-04-28T11:49:14.980Z,99452.70
2018-04-28T11:51:41.623Z,99456.27
2018-04-28T11:54:08.373Z,99445.25
2018-04-28T11:56:35.227Z,99442.02
2018-04-28T11:59:02.032Z,99451.88
2018-04-28T12:01:28.707Z,99441.48
2018-04-28T12:03:55.446Z,99441.62
2018-04-28T12:06:22.294Z,99447.75
2018-04-28T12:08:48.948Z,99441.62
2018-04-28T12:11:15.688Z,99437.28
2018-04-28T12:13:42.431Z,99428.30
2018-04-28T12:16:09.280Z,99429.59
2018-04-28T12:18:36.131Z,99420.71
2018-04-28T12:21:02.978Z,99424.89
2018-04-28T12:23:29.723Z,99425.77
2018-04-28T12:25:56.673Z,99417.55
2018-04-28T12:28:23.432Z,99413.08
2018-04-28T12:30:50.065Z,99418.59
2018-04-28T12:33:16.802Z,99413.27
2018-04-28T12:35:43.554Z,99416.74
2018-04-28T12:38:10.295Z,99423.92
2018-04-28T12:40:36.987Z,99422.91
2018-04-28T12:43:03.686Z,99416.67
2018-04-28T12:45:30.428Z,99414.75
2018-04-28T12:47:57.178Z,99413.00
2018-04-28T12:50:23.969Z,99412.31
2018-04-28T12:52:50.670Z,99400.35
2018-04-28T12:55:17.409Z,99410.48
2018-04-28T12:57:44.163Z,99408.58
2018-04-28T13:00:10.904Z,99411.94
2018-04-28T13:02:37.496Z,99403.95
2018-04-28T13:05:04.082Z,99402.27
2018-04-28T13:07:30.706Z,99406.89
2018-04-28T13:09:57.475Z,99401.56
2018-04-28T13:12:24.227Z,99399.08
2018-04-28T13:14:50.867Z,99398.14
2018-04-28T13:17:17.538Z,99402.28
2018-04-28T13:19:44.150Z,99405.47
2018-04-28T13:22:10.827Z,99395.12
2018-04-28T13:24:37.641Z,99391.77
2018-04-28T13:27:04.331Z,99388.25
2018-04-28T13:29:31.031Z,99391.09
2018-04-28T13:31:57.881Z,99385.00
2018-04-28T13:34:24.621Z,99395.64
2018-04-28T13:36:51.377Z,99394.94
2018-04-28T13:39:18.116Z,99390.43
2018-04-28T13:41:44.756Z,99387.77
2018-04-28T13:44:11.512Z,99383.76
2018-04-28T13:46:38.048Z,99391.37
2018-04-28T13:49:04.790Z,99394.91
2018-04-28T13:51:31.489Z,99388.08
2018-04-28T13:53:58.179Z,99386.26
2018-04-28T13:56:24.926Z,99383.34
2018-04-28T13:58:52.691Z,99378.84
2018-04-28T14:01:19.446Z,99376.80
2018-04-28T14:03:46.181Z,99376.27
2018-04-28T14:06:12.937Z,99375.41
2018-04-28T14:08:39.674Z,99375.61
2018-04-28T14:11:06.420Z,99371.56
2018-04-28T14:13:33.169Z,99370.72
2018-04-28T14:15:59.814Z,99373.08
2018-04-28T14:18:26.597Z,99360.33
2018-04-28T14:20:53.509Z,99364.79
2018-04-28T14:23:20.253Z,99368.41
2018-04-28T14:25:47.003Z,99361.27
2018-04-28T14:28:13.745Z,99360.91
2018-04-28T14:30:40.387Z,99356.77
2018-04-28T14:33:07.131Z,99356.28
2018-04-28T14:35:33.981Z,99361.70
2018-04-28T14:38:00.624Z,99360.60
2018-04-28T14:40:27.366Z,99361.39
2018-04-28T14:42:54.121Z,99354.04
2018-04-28T14:45:20.758Z,99350.83
2018-04-28T14:47:47.526Z,99362.56
2018-04-28T14:50:14.350Z,99361.70
2018-04-28T14:52:41.022Z,99359.59
2018-04-28T14:55:07.739Z,99358.64
2018-04-28T14:57:34.480Z,99352.98
2018-04-28T15:00:01.233Z,99362.41
2018-04-28T15:02:27.870Z,99355.81
2018-04-28T15:04:54.622Z,99368.00
2018-04-28T15:07:21.264Z,99360.06
2018-04-28T15:09:48.025Z,99361.16
2018-04-28T15:12:14.755Z,99357.86
2018-04-28T15:14:41.397Z,99360.17
2018-04-28T15:17:08.149Z,99361.47
2018-04-28T15:19:34.887Z,99364.53
2018-04-28T15:22:01.645Z,99359.14
2018-04-28T15:24:28.378Z,99355.74
2018-04-28T15:26:55.232Z,99358.02
2018-04-28T15:29:21.970Z,99355.50
2018-04-28T15:31:48.713Z,99357.13
2018-04-28T15:34:15.464Z,99360.47
2018-04-28T15:36:42.205Z,99361.25
2018-04-28T15:39:08.954Z,99361.26
2018-04-28T15:41:35.699Z,99365.98
2018-04-28T15:44:02.547Z,99361.86
2018-04-28T15:46:29.188Z,99360.96
2018-04-28T15:48:55.935Z,99364.25
2018-04-28T15:51:22.679Z,99359.50
2018-04-28T15:53:49.429Z,99362.20
2018-04-28T15:56:16.171Z,99360.64
2018-04-28T15:58:42.810Z,99358.05
2018-04-28T16:01:09.461Z,99355.04
2018-04-28T16:03:36.250Z,99358.63
2018-04-28T16:06:02.951Z,99358.13
2018-04-28T16:08:29.706Z,99359.19
2018-04-28T16:10:56.442Z,99353.99
2018-04-28T16:13:23.087Z,99349.66
2018-04-28T16:15:49.737Z,99355.86
2018-04-28T16:18:16.478Z,99351.30
2018-04-28T16:20:43.218Z,99347.27
2018-04-28T16:23:09.781Z,99344.05
2018-04-28T16:25:36.512Z,99347.14
2018-04-28T16:28:03.251Z,99349.11
2018-04-28T16:30:29.998Z,99349.20
2018-04-28T16:32:56.743Z,99344.27
2018-04-28T16:35:23.381Z,99346.49
2018-04-28T16:37:50.072Z,99341.64
2018-04-28T16:40:16.776Z,99351.41
2018-04-28T16:42:43.726Z,99354.19
2018-04-28T16:45:10.365Z,99352.27
2018-04-28T16:47:37.107Z,99351.44
2018-04-28T16:50:03.855Z,99347.94
2018-04-28T16:52:30.499Z,99349.11
2018-04-28T16:54:57.247Z,99348.34
2018-04-28T16:57:23.892Z,99347.14
2018-04-28T16:59:50.532Z,99346.59
2018-04-28T17:02:17.383Z,99350.14
2018-04-28T17:04:44.063Z,99354.09
2018-04-28T17:07:10.775Z,99355.53
2018-04-28T17:09:37.516Z,99356.23
2018-04-28T17:12:04.266Z,99356.09
2018-04-28T17:14:31.003Z,99358.15
2018-04-28T17:16:57.629Z,99359.63
2018-04-28T17:19:24.295Z,99357.86
2018-04-28T17:21:51.138Z,99364.93
2018-04-28T17:24:17.890Z,99363.46
2018-04-28T17:26:44.532Z,99364.10
2018-04-28T17:29:11.182Z,99377.63
2018-04-28T17:31:38.023Z,99371.91
2018-04-28T17:34:04.661Z,99368.87
2018-04-28T17:36:31.417Z,99373.56
2018-04-28T17:38:58.262Z,99371.81
2018-04-28T17:41:25.004Z,99373.38
2018-04-28T17:43:51.646Z,99366.97
2018-04-28T17:46:18.497Z,99371.42
2018-04-28T17:48:45.247Z,99373.43
2018-04-28T17:51:11.991Z,99377.03
2018-04-28T17:53:38.726Z,99378.41
2018-04-28T17:56:05.367Z,99382.63
2018-04-28T17:58:32.119Z,99385.09
2018-04-28T18:00:58.862Z,99389.59
2018-04-28T18:03:25.611Z,99387.02
2018-04-28T18:05:52.351Z,99389.84
2018-04-28T18:08:19.101Z,99392.00
2018-04-28T18:10:46.153Z,99388.53
2018-04-28T18:13:13.116Z,99400.31
2018-04-28T18:15:39.845Z,99402.28
2018-04-28T18:18:06.595Z,99400.02
2018-04-28T18:20:33.343Z,99397.33
2018-04-28T18:23:00.026Z,99402.67
2018-04-28T18:25:26.734Z,99413.23
2018-04-28T18:27:53.472Z,99409.13
2018-04-28T18:30:20.335Z,99414.41
2018-04-28T18:32:47.073Z,99416.54
2018-04-28T18:35:13.715Z,99418.98
2018-04-28T18:37:40.450Z,99414.63
2018-04-28T18:40:07.414Z,99419.28
2018-04-28T18:42:34.164Z,99424.56
2018-04-28T18:45:00.796Z,99420.41
2018-04-28T18:47:27.437Z,99420.71
2018-04-28T18:49:54.183Z,99420.54
2018-04-28T18:52:20.928Z,99417.33
2018-04-28T18:54:47.618Z,99420.88
2018-04-28T18:57:14.320Z,99424.63
2018-04-28T18:59:41.071Z,99429.60
2018-04-28T19:02:07.599Z,99424.88
2018-04-28T19:04:34.250Z,99431.55
2018-04-28T19:07:00.991Z,99431.19
2018-04-28T19:09:27.637Z,99429.94
2018-04-28T19:11:54.286Z,99430.23
2018-04-28T19:14:20.982Z,99433.75
2018-04-28T19:16:47.682Z,99436.20
2018-04-28T19:19:14.346Z,99440.02
2018-04-28T19:21:41.058Z,99446.52
2018-04-28T19:24:08.657Z,99444.13
2018-04-28T19:26:35.266Z,99441.50
2018-04-28T19:29:02.107Z,99440.02
2018-04-28T19:31:28.797Z,99432.66
2018-04-28T19:33:55.400Z,99432.61
2018-04-28T19:36:22.142Z,99428.30
2018-04-28T19:38:48.891Z,99431.13
2018-04-28T19:41:15.533Z,99425.31
2018-04-28T19:43:42.385Z,99426.95
2018-04-28T19:46:09.225Z,99421.03
2018-04-28T19:48:35.982Z,99429.34
2018-04-28T19:51:02.827Z,99424.91
2018-04-28T19:53:29.567Z,99430.73
2018-04-28T19:55:56.320Z,99423.03
2018-04-28T19:58:23.056Z,99422.89
2018-04-28T20:00:49.695Z,99421.87
2018-04-28T20:03:16.451Z,99419.58
2018-04-28T20:05:43.236Z,99423.67
2018-04-28T20:08:09.943Z,99420.69
2018-04-28T20:10:36.682Z,99408.23
2018-04-28T20:13:03.433Z,99412.41
2018-04-28T20:15:30.075Z,99403.30
2018-04-28T20:17:56.817Z,99412.63
2018-04-28T20:20:23.664Z,99404.88
2018-04-28T20:23:02.384Z,99408.80
2018-04-28T20:25:29.139Z,99401.91
2018-04-28T20:27:55.767Z,99407.47
2018-04-28T20:30:22.520Z,99409.23
2018-04-28T20:32:49.263Z,99410.92
2018-04-28T20:35:15.907Z,99412.48
2018-04-28T20:37:42.552Z,99411.47
2018-04-28T20:40:10.011Z,99417.93
2018-04-28T20:42:36.654Z,99416.14
2018-04-28T20:45:03.417Z,99408.36
2018-04-28T20:47:30.255Z,99413.06
2018-04-28T20:49:56.992Z,99409.72
2018-04-28T20:52:23.657Z,99410.05
2018-04-28T20:54:50.414Z,99410.36
